sensor_id;sensor_type;location;lat;lon;timestamp;pressure;altitude;pressure_sealevel;temperature;humidity
45078;BME280;60508;42.622;25.416;2023-02-07T00:00:19;98077.63;;;-1.25;49.75
45078;BME280;60508;42.622;25.416;2023-02-07T00:02:46;98089.84;;;-1.24;49.84
45078;BME280;60508;42.622;25.416;2023-02-07T00:05:13;98094.56;;;-1.27;49.96
45078;BME280;60508;42.622;25.416;2023-02-07T00:07:40;98096.91;;;-1.24;49.75
45078;BME280;60508;42.622;25.416;2023-02-07T00:10:07;98090.81;;;-1.35;49.73
45078;BME280;60508;42.622;25.416;2023-02-07T00:12:34;98100.69;;;-1.27;50.48
45078;BME280;60508;42.622;25.416;2023-02-07T00:15:00;98117.34;;;-1.07;49.27
45078;BME280;60508;42.622;25.416;2023-02-07T00:17:28;98111.53;;;-1.11;49.16
45078;BME280;60508;42.622;25.416;2023-02-07T00:19:54;98100.56;;;-1.16;49.85
45078;BME280;60508;42.622;25.416;2023-02-07T00:22:20;98113.91;;;-0.98;49.32
45078;BME280;60508;42.622;25.416;2023-02-07T00:24:46;98116.81;;;-0.91;49.39
45078;BME280;60508;42.622;25.416;2023-02-07T00:27:12;98096.53;;;-1.10;49.63
45078;BME280;60508;42.622;25.416;2023-02-07T00:29:38;98121.13;;;-1.00;49.75
45078;BME280;60508;42.622;25.416;2023-02-07T00:32:05;98118.09;;;-0.85;48.91
45078;BME280;60508;42.622;25.416;2023-02-07T00:34:31;98121.53;;;-0.95;49.16
45078;BME280;60508;42.622;25.416;2023-02-07T00:37:04;98125.00;;;-1.04;49.32
45078;BME280;60508;42.622;25.416;2023-02-07T00:39:30;98102.50;;;-1.18;49.80
45078;BME280;60508;42.622;25.416;2023-02-07T00:41:56;98098.19;;;-1.29;50.40
45078;BME280;60508;42.622;25.416;2023-02-07T00:44:22;98123.59;;;-1.18;51.20
45078;BME280;60508;42.622;25.416;2023-02-07T00:46:48;98127.78;;;-0.96;51.12
45078;BME280;60508;42.622;25.416;2023-02-07T00:49:14;98123.78;;;-0.90;50.99
45078;BME280;60508;42.622;25.416;2023-02-07T00:51:41;98124.88;;;-0.93;50.84
45078;BME280;60508;42.622;25.416;2023-02-07T00:54:07;98114.03;;;-0.99;50.26
45078;BME280;60508;42.622;25.416;2023-02-07T00:56:34;98120.84;;;-0.97;50.16
45078;BME280;60508;42.622;25.416;2023-02-07T00:59:00;98121.25;;;-1.01;49.54
45078;BME280;60508;42.622;25.416;2023-02-07T01:01:27;98115.72;;;-1.08;50.59
45078;BME280;60508;42.622;25.416;2023-02-07T01:03:55;98110.41;;;-1.18;50.92
45078;BME280;60508;42.622;25.416;2023-02-07T01:06:22;98102.38;;;-1.16;50.84
45078;BME280;60508;42.622;25.416;2023-02-07T01:08:48;98112.19;;;-1.18;51.04
45078;BME280;60508;42.622;25.416;2023-02-07T01:11:15;98098.88;;;-1.26;50.35
45078;BME280;60508;42.622;25.416;2023-02-07T01:13:42;98102.03;;;-1.33;52.71
45078;BME280;60508;42.622;25.416;2023-02-07T01:16:20;98110.66;;;-1.31;52.08
45078;BME280;60508;42.622;25.416;2023-02-07T01:18:48;98118.56;;;-1.31;52.89
45078;BME280;60508;42.622;25.416;2023-02-07T01:21:16;98102.75;;;-1.31;53.84
45078;BME280;60508;42.622;25.416;2023-02-07T01:23:43;98104.69;;;-1.23;53.80
45078;BME280;60508;42.622;25.416;2023-02-07T01:26:09;98112.06;;;-1.17;55.00
45078;BME280;60508;42.622;25.416;2023-02-07T01:28:35;98100.81;;;-1.19;55.49
45078;BME280;60508;42.622;25.416;2023-02-07T01:31:10;98101.78;;;-1.20;55.58
45078;BME280;60508;42.622;25.416;2023-02-07T01:33:36;98111.22;;;-1.27;55.94
45078;BME280;60508;42.622;25.416;2023-02-07T01:36:08;98104.25;;;-1.38;57.00
45078;BME280;60508;42.622;25.416;2023-02-07T01:38:34;98103.03;;;-1.24;56.81
45078;BME280;60508;42.622;25.416;2023-02-07T01:41:00;98092.47;;;-1.34;56.34
45078;BME280;60508;42.622;25.416;2023-02-07T01:43:27;98091.34;;;-1.41;56.92
45078;BME280;60508;42.622;25.416;2023-02-07T01:45:53;98104.50;;;-1.41;56.50
45078;BME280;60508;42.622;25.416;2023-02-07T01:48:41;98107.41;;;-1.44;56.71
45078;BME280;60508;42.622;25.416;2023-02-07T01:51:07;98093.22;;;-1.62;57.71
45078;BME280;60508;42.622;25.416;2023-02-07T01:53:36;98099.22;;;-1.51;58.16
45078;BME280;60508;42.622;25.416;2023-02-07T01:56:05;98097.63;;;-1.32;57.60
45078;BME280;60508;42.622;25.416;2023-02-07T01:58:35;98112.84;;;-1.36;57.59
45078;BME280;60508;42.622;25.416;2023-02-07T02:01:05;98111.50;;;-1.30;57.97
45078;BME280;60508;42.622;25.416;2023-02-07T02:03:34;98083.78;;;-1.15;57.01
45078;BME280;60508;42.622;25.416;2023-02-07T02:06:03;98097.91;;;-1.16;57.80
45078;BME280;60508;42.622;25.416;2023-02-07T02:08:29;98107.91;;;-1.19;58.08
45078;BME280;60508;42.622;25.416;2023-02-07T02:11:00;98108.34;;;-1.14;58.18
45078;BME280;60508;42.622;25.416;2023-02-07T02:33:19;98119.84;;;-1.05;59.81
45078;BME280;60508;42.622;25.416;2023-02-07T02:46:08;98113.72;;;-1.25;60.65
45078;BME280;60508;42.622;25.416;2023-02-07T02:48:36;98116.22;;;-1.24;60.47
45078;BME280;60508;42.622;25.416;2023-02-07T02:51:03;98105.56;;;-1.22;60.31
45078;BME280;60508;42.622;25.416;2023-02-07T02:53:30;98111.38;;;-1.19;60.71
45078;BME280;60508;42.622;25.416;2023-02-07T03:12:08;98135.19;;;-1.40;58.51
45078;BME280;60508;42.622;25.416;2023-02-07T03:14:59;98140.03;;;-1.45;58.34
45078;BME280;60508;42.622;25.416;2023-02-07T03:17:46;98146.81;;;-1.52;58.46
45078;BME280;60508;42.622;25.416;2023-02-07T03:20:23;98136.66;;;-1.57;57.98
45078;BME280;60508;42.622;25.416;2023-02-07T03:22:52;98133.75;;;-1.54;54.21
45078;BME280;60508;42.622;25.416;2023-02-07T03:25:22;98137.16;;;-1.73;52.92
45078;BME280;60508;42.622;25.416;2023-02-07T03:27:52;98136.44;;;-1.75;53.50
45078;BME280;60508;42.622;25.416;2023-02-07T03:30:20;98135.00;;;-1.58;52.48
45078;BME280;60508;42.622;25.416;2023-02-07T03:32:50;98126.34;;;-1.70;49.89
45078;BME280;60508;42.622;25.416;2023-02-07T03:35:30;98126.66;;;-1.63;50.32
45078;BME280;60508;42.622;25.416;2023-02-07T03:38:01;98130.28;;;-1.54;50.95
45078;BME280;60508;42.622;25.416;2023-02-07T03:40:31;98138.06;;;-1.53;49.66
45078;BME280;60508;42.622;25.416;2023-02-07T03:46:01;98131.97;;;-1.53;50.45
45078;BME280;60508;42.622;25.416;2023-02-07T03:48:27;98134.59;;;-1.53;49.94
45078;BME280;60508;42.622;25.416;2023-02-07T03:50:53;98138.63;;;-1.49;50.72
45078;BME280;60508;42.622;25.416;2023-02-07T03:53:19;98126.09;;;-1.57;48.96
45078;BME280;60508;42.622;25.416;2023-02-07T03:55:46;98127.06;;;-1.68;49.91
45078;BME280;60508;42.622;25.416;2023-02-07T03:58:12;98146.81;;;-1.52;50.67
45078;BME280;60508;42.622;25.416;2023-02-07T04:00:38;98137.06;;;-1.61;51.39
45078;BME280;60508;42.622;25.416;2023-02-07T04:03:05;98130.56;;;-1.57;51.12
45078;BME280;60508;42.622;25.416;2023-02-07T04:05:31;98136.75;;;-1.68;51.72
45078;BME280;60508;42.622;25.416;2023-02-07T04:07:57;98141.59;;;-1.73;51.52
45078;BME280;60508;42.622;25.416;2023-02-07T04:10:23;98131.91;;;-1.73;51.74
45078;BME280;60508;42.622;25.416;2023-02-07T04:12:50;98132.84;;;-1.74;51.46
45078;BME280;60508;42.622;25.416;2023-02-07T04:15:15;98123.75;;;-1.91;51.82
45078;BME280;60508;42.622;25.416;2023-02-07T04:17:41;98144.69;;;-1.89;52.92
45078;BME280;60508;42.622;25.416;2023-02-07T04:20:08;98141.44;;;-1.72;50.53
45078;BME280;60508;42.622;25.416;2023-02-07T04:22:35;98136.72;;;-1.78;51.60
45078;BME280;60508;42.622;25.416;2023-02-07T04:25:02;98143.00;;;-1.69;51.77
45078;BME280;60508;42.622;25.416;2023-02-07T04:27:28;98161.50;;;-1.59;51.24
45078;BME280;60508;42.622;25.416;2023-02-07T04:29:54;98161.94;;;-1.54;51.39
45078;BME280;60508;42.622;25.416;2023-02-07T04:32:21;98154.97;;;-1.55;50.00
45078;BME280;60508;42.622;25.416;2023-02-07T04:34:47;98162.22;;;-1.48;49.88
45078;BME280;60508;42.622;25.416;2023-02-07T04:37:13;98159.44;;;-1.46;50.79
45078;BME280;60508;42.622;25.416;2023-02-07T04:39:38;98154.59;;;-1.51;49.34
45078;BME280;60508;42.622;25.416;2023-02-07T04:42:05;98157.69;;;-1.36;48.82
45078;BME280;60508;42.622;25.416;2023-02-07T04:44:32;98162.75;;;-1.54;49.76
45078;BME280;60508;42.622;25.416;2023-02-07T04:46:58;98168.16;;;-1.55;50.00
45078;BME280;60508;42.622;25.416;2023-02-07T04:49:24;98154.84;;;-1.54;50.12
45078;BME280;60508;42.622;25.416;2023-02-07T04:51:50;98165.97;;;-1.50;49.79
45078;BME280;60508;42.622;25.416;2023-02-07T04:54:16;98171.66;;;-1.55;50.59
45078;BME280;60508;42.622;25.416;2023-02-07T04:56:43;98174.59;;;-1.48;50.50
45078;BME280;60508;42.622;25.416;2023-02-07T04:59:09;98168.72;;;-1.21;49.75
45078;BME280;60508;42.622;25.416;2023-02-07T05:01:35;98161.16;;;-1.35;50.43
45078;BME280;60508;42.622;25.416;2023-02-07T05:04:01;98175.75;;;-1.21;49.73
45078;BME280;60508;42.622;25.416;2023-02-07T05:06:27;98181.91;;;-1.11;49.39
45078;BME280;60508;42.622;25.416;2023-02-07T05:08:53;98180.25;;;-1.02;49.28
45078;BME280;60508;42.622;25.416;2023-02-07T05:11:19;98176.66;;;-1.11;48.71
45078;BME280;60508;42.622;25.416;2023-02-07T05:13:46;98189.69;;;-1.19;49.00
45078;BME280;60508;42.622;25.416;2023-02-07T05:16:11;98190.56;;;-1.40;48.51
45078;BME280;60508;42.622;25.416;2023-02-07T05:18:37;98185.72;;;-1.35;47.76
45078;BME280;60508;42.622;25.416;2023-02-07T05:21:03;98191.38;;;-1.39;47.74
45078;BME280;60508;42.622;25.416;2023-02-07T05:23:29;98186.97;;;-1.39;47.53
45078;BME280;60508;42.622;25.416;2023-02-07T05:25:55;98196.75;;;-1.51;47.61
45078;BME280;60508;42.622;25.416;2023-02-07T05:28:22;98196.53;;;-1.38;47.73
45078;BME280;60508;42.622;25.416;2023-02-07T05:30:52;98185.06;;;-1.27;46.52
45078;BME280;60508;42.622;25.416;2023-02-07T05:33:18;98169.41;;;-1.59;46.81
45078;BME280;60508;42.622;25.416;2023-02-07T05:35:45;98175.78;;;-1.52;47.44
45078;BME280;60508;42.622;25.416;2023-02-07T05:38:14;98195.22;;;-1.22;46.78
45078;BME280;60508;42.622;25.416;2023-02-07T05:40:41;98195.47;;;-1.25;46.20
45078;BME280;60508;42.622;25.416;2023-02-07T05:43:09;98188.78;;;-1.30;45.58
45078;BME280;60508;42.622;25.416;2023-02-07T05:45:36;98187.44;;;-1.24;44.78
45078;BME280;60508;42.622;25.416;2023-02-07T05:48:03;98192.31;;;-1.19;45.00
45078;BME280;60508;42.622;25.416;2023-02-07T05:50:29;98193.09;;;-1.29;44.98
45078;BME280;60508;42.622;25.416;2023-02-07T05:53:06;98195.19;;;-1.32;45.50
45078;BME280;60508;42.622;25.416;2023-02-07T05:55:33;98192.69;;;-1.34;45.63
45078;BME280;60508;42.622;25.416;2023-02-07T05:57:59;98192.09;;;-1.37;44.80
45078;BME280;60508;42.622;25.416;2023-02-07T06:00:26;98188.22;;;-1.33;44.60
45078;BME280;60508;42.622;25.416;2023-02-07T06:02:52;98197.72;;;-1.21;45.07
45078;BME280;60508;42.622;25.416;2023-02-07T06:05:18;98207.97;;;-1.27;44.78
45078;BME280;60508;42.622;25.416;2023-02-07T06:07:45;98205.72;;;-1.32;45.20
45078;BME280;60508;42.622;25.416;2023-02-07T06:10:12;98196.34;;;-1.15;45.08
45078;BME280;60508;42.622;25.416;2023-02-07T06:12:38;98207.34;;;-1.00;45.01
45078;BME280;60508;42.622;25.416;2023-02-07T06:15:05;98189.84;;;-1.01;44.85
45078;BME280;60508;42.622;25.416;2023-02-07T06:17:32;98205.28;;;-0.97;44.53
45078;BME280;60508;42.622;25.416;2023-02-07T06:19:57;98210.16;;;-0.92;44.58
45078;BME280;60508;42.622;25.416;2023-02-07T06:22:23;98196.75;;;-1.10;45.83
45078;BME280;60508;42.622;25.416;2023-02-07T06:24:49;98200.31;;;-0.90;45.51
45078;BME280;60508;42.622;25.416;2023-02-07T06:27:15;98213.94;;;-0.75;45.13
45078;BME280;60508;42.622;25.416;2023-02-07T06:29:41;98214.91;;;-0.57;44.73
45078;BME280;60508;42.622;25.416;2023-02-07T06:32:07;98212.72;;;-0.61;45.51
45078;BME280;60508;42.622;25.416;2023-02-07T06:34:32;98213.13;;;-0.37;45.06
45078;BME280;60508;42.622;25.416;2023-02-07T06:36:58;98203.53;;;-0.38;45.08
45078;BME280;60508;42.622;25.416;2023-02-07T06:39:24;98211.59;;;-0.29;45.17
45078;BME280;60508;42.622;25.416;2023-02-07T06:41:51;98198.38;;;-0.20;45.64
45078;BME280;60508;42.622;25.416;2023-02-07T06:44:17;98192.81;;;-0.07;44.07
45078;BME280;60508;42.622;25.416;2023-02-07T06:46:43;98204.41;;;-0.37;42.50
45078;BME280;60508;42.622;25.416;2023-02-07T06:49:10;98197.56;;;-0.49;43.58
45078;BME280;60508;42.622;25.416;2023-02-07T06:51:36;98180.63;;;-0.47;42.97
45078;BME280;60508;42.622;25.416;2023-02-07T06:54:02;98176.59;;;-0.41;42.93
45078;BME280;60508;42.622;25.416;2023-02-07T06:56:32;98191.72;;;-0.14;42.84
45078;BME280;60508;42.622;25.416;2023-02-07T06:58:58;98182.25;;;-0.07;42.04
45078;BME280;60508;42.622;25.416;2023-02-07T07:01:24;98190.59;;;0.08;41.87
45078;BME280;60508;42.622;25.416;2023-02-07T07:03:50;98194.88;;;0.09;42.29
45078;BME280;60508;42.622;25.416;2023-02-07T07:06:16;98197.94;;;0.05;43.04
45078;BME280;60508;42.622;25.416;2023-02-07T07:08:42;98201.84;;;0.10;42.97
45078;BME280;60508;42.622;25.416;2023-02-07T07:11:08;98198.69;;;-0.13;43.91
45078;BME280;60508;42.622;25.416;2023-02-07T07:13:35;98201.03;;;-0.29;45.11
45078;BME280;60508;42.622;25.416;2023-02-07T07:16:01;98198.81;;;-0.44;46.95
45078;BME280;60508;42.622;25.416;2023-02-07T07:18:27;98202.16;;;-0.42;46.35
45078;BME280;60508;42.622;25.416;2023-02-07T07:20:54;98196.44;;;-0.66;46.83
45078;BME280;60508;42.622;25.416;2023-02-07T07:23:20;98201.41;;;-0.83;45.79
45078;BME280;60508;42.622;25.416;2023-02-07T07:25:46;98194.50;;;-0.74;46.67
45078;BME280;60508;42.622;25.416;2023-02-07T07:28:12;98203.94;;;-0.62;48.33
45078;BME280;60508;42.622;25.416;2023-02-07T07:30:42;98196.16;;;-0.53;49.17
45078;BME280;60508;42.622;25.416;2023-02-07T07:33:08;98202.72;;;-0.48;48.91
45078;BME280;60508;42.622;25.416;2023-02-07T07:35:35;98189.38;;;-0.56;49.15
45078;BME280;60508;42.622;25.416;2023-02-07T07:38:01;98200.47;;;-0.62;48.14
45078;BME280;60508;42.622;25.416;2023-02-07T07:40:27;98202.69;;;-0.67;48.46
45078;BME280;60508;42.622;25.416;2023-02-07T07:42:54;98201.72;;;-0.66;51.13
45078;BME280;60508;42.622;25.416;2023-02-07T07:45:40;98192.25;;;-0.79;51.58
45078;BME280;60508;42.622;25.416;2023-02-07T07:48:06;98193.47;;;-1.02;51.09
45078;BME280;60508;42.622;25.416;2023-02-07T07:50:32;98199.56;;;-1.02;49.31
45078;BME280;60508;42.622;25.416;2023-02-07T07:52:57;98207.34;;;-0.90;49.53
45078;BME280;60508;42.622;25.416;2023-02-07T07:55:23;98212.38;;;-0.87;50.05
45078;BME280;60508;42.622;25.416;2023-02-07T07:57:49;98223.50;;;-0.94;50.17
45078;BME280;60508;42.622;25.416;2023-02-07T08:00:17;98223.72;;;-1.06;50.72
45078;BME280;60508;42.622;25.416;2023-02-07T08:02:43;98218.75;;;-1.00;51.27
45078;BME280;60508;42.622;25.416;2023-02-07T08:05:09;98215.56;;;-0.94;50.31
45078;BME280;60508;42.622;25.416;2023-02-07T08:07:36;98229.84;;;-1.06;48.50
45078;BME280;60508;42.622;25.416;2023-02-07T08:10:02;98225.25;;;-1.04;48.94
45078;BME280;60508;42.622;25.416;2023-02-07T08:12:30;98223.63;;;-0.95;49.94
45078;BME280;60508;42.622;25.416;2023-02-07T08:14:56;98215.44;;;-0.92;50.00
45078;BME280;60508;42.622;25.416;2023-02-07T08:17:22;98207.91;;;-1.06;50.46
45078;BME280;60508;42.622;25.416;2023-02-07T08:19:48;98214.56;;;-1.02;50.14
45078;BME280;60508;42.622;25.416;2023-02-07T08:22:15;98217.47;;;-1.05;50.20
45078;BME280;60508;42.622;25.416;2023-02-07T08:24:41;98210.09;;;-1.02;49.89
45078;BME280;60508;42.622;25.416;2023-02-07T08:27:07;98208.44;;;-1.13;49.76
45078;BME280;60508;42.622;25.416;2023-02-07T08:29:32;98210.78;;;-1.19;48.09
45078;BME280;60508;42.622;25.416;2023-02-07T08:31:59;98211.38;;;-1.06;49.20
45078;BME280;60508;42.622;25.416;2023-02-07T08:34:25;98212.09;;;-0.84;48.43
45078;BME280;60508;42.622;25.416;2023-02-07T08:36:53;98213.13;;;-0.56;48.11
45078;BME280;60508;42.622;25.416;2023-02-07T08:39:20;98217.28;;;-0.44;47.33
45078;BME280;60508;42.622;25.416;2023-02-07T08:41:45;98217.72;;;-0.48;47.36
45078;BME280;60508;42.622;25.416;2023-02-07T08:44:11;98217.59;;;-0.47;48.21
45078;BME280;60508;42.622;25.416;2023-02-07T08:46:37;98217.00;;;-0.50;48.54
45078;BME280;60508;42.622;25.416;2023-02-07T08:49:03;98214.38;;;-0.60;47.61
45078;BME280;60508;42.622;25.416;2023-02-07T08:51:29;98219.34;;;-0.77;45.91
45078;BME280;60508;42.622;25.416;2023-02-07T08:53:55;98225.91;;;-0.71;47.53
45078;BME280;60508;42.622;25.416;2023-02-07T08:56:22;98224.91;;;-0.70;47.13
45078;BME280;60508;42.622;25.416;2023-02-07T08:58:48;98213.69;;;-0.62;47.32
45078;BME280;60508;42.622;25.416;2023-02-07T09:01:14;98212.72;;;-0.51;47.22
45078;BME280;60508;42.622;25.416;2023-02-07T09:03:40;98222.13;;;-0.68;47.01
45078;BME280;60508;42.622;25.416;2023-02-07T09:06:07;98219.38;;;-0.57;47.20
45078;BME280;60508;42.622;25.416;2023-02-07T09:08:33;98226.34;;;-0.56;47.39
45078;BME280;60508;42.622;25.416;2023-02-07T09:10:59;98215.09;;;-0.58;47.67
45078;BME280;60508;42.622;25.416;2023-02-07T09:13:25;98223.28;;;-0.42;47.01
45078;BME280;60508;42.622;25.416;2023-02-07T09:15:57;98211.88;;;-0.42;46.78
45078;BME280;60508;42.622;25.416;2023-02-07T09:18:24;98218.97;;;-0.33;46.28
45078;BME280;60508;42.622;25.416;2023-02-07T09:20:52;98207.31;;;-0.40;47.42
45078;BME280;60508;42.622;25.416;2023-02-07T09:23:19;98217.31;;;-0.24;47.19
45078;BME280;60508;42.622;25.416;2023-02-07T09:25:46;98216.34;;;-0.23;47.00
45078;BME280;60508;42.622;25.416;2023-02-07T09:28:12;98212.19;;;-0.35;47.64
45078;BME280;60508;42.622;25.416;2023-02-07T09:30:40;98219.94;;;-0.34;47.81
45078;BME280;60508;42.622;25.416;2023-02-07T09:33:07;98219.50;;;-0.59;49.55
45078;BME280;60508;42.622;25.416;2023-02-07T09:35:38;98217.72;;;-0.48;49.71
45078;BME280;60508;42.622;25.416;2023-02-07T09:38:05;98209.94;;;-0.60;49.65
45078;BME280;60508;42.622;25.416;2023-02-07T09:40:33;98215.16;;;-0.79;51.38
45078;BME280;60508;42.622;25.416;2023-02-07T09:43:13;98216.81;;;-0.88;52.50
45078;BME280;60508;42.622;25.416;2023-02-07T09:45:46;98213.22;;;-0.87;52.17
45078;BME280;60508;42.622;25.416;2023-02-07T09:48:22;98206.66;;;-1.02;52.77
45078;BME280;60508;42.622;25.416;2023-02-07T09:50:52;98215.84;;;-0.97;53.62
45078;BME280;60508;42.622;25.416;2023-02-07T09:53:50;98211.22;;;-1.04;53.89
45078;BME280;60508;42.622;25.416;2023-02-07T09:56:16;98200.88;;;-0.77;53.43
45078;BME280;60508;42.622;25.416;2023-02-07T09:58:58;98201.84;;;-0.78;53.00
45078;BME280;60508;42.622;25.416;2023-02-07T10:01:33;98196.53;;;-0.87;52.32
45078;BME280;60508;42.622;25.416;2023-02-07T10:06:51;98189.38;;;-0.46;51.42
45078;BME280;60508;42.622;25.416;2023-02-07T10:09:21;98189.38;;;-0.46;50.36
45078;BME280;60508;42.622;25.416;2023-02-07T10:15:35;98173.13;;;-0.61;52.40
45078;BME280;60508;42.622;25.416;2023-02-07T10:21:04;98179.75;;;-0.18;50.63
45078;BME280;60508;42.622;25.416;2023-02-07T10:26:26;98170.53;;;0.15;47.22
45078;BME280;60508;42.622;25.416;2023-02-07T10:31:51;98159.59;;;-0.09;47.57
45078;BME280;60508;42.622;25.416;2023-02-07T10:34:22;98164.03;;;0.00;47.48
45078;BME280;60508;42.622;25.416;2023-02-07T10:36:51;98159.16;;;0.05;48.08
45078;BME280;60508;42.622;25.416;2023-02-07T10:39:32;98163.44;;;0.06;47.33
45078;BME280;60508;42.622;25.416;2023-02-07T10:41:59;98145.94;;;0.05;45.99
45078;BME280;60508;42.622;25.416;2023-02-07T10:44:25;98154.94;;;0.12;44.75
45078;BME280;60508;42.622;25.416;2023-02-07T10:47:00;98149.50;;;0.24;45.33
45078;BME280;60508;42.622;25.416;2023-02-07T10:49:30;98138.41;;;0.48;45.48
45078;BME280;60508;42.622;25.416;2023-02-07T10:51:58;98143.06;;;0.36;43.17
45078;BME280;60508;42.622;25.416;2023-02-07T10:54:27;98149.03;;;0.94;43.18
45078;BME280;60508;42.622;25.416;2023-02-07T10:56:57;98146.31;;;1.03;41.83
45078;BME280;60508;42.622;25.416;2023-02-07T10:59:41;98145.00;;;0.71;42.77
45078;BME280;60508;42.622;25.416;2023-02-07T11:10:41;98135.16;;;1.63;40.04
45078;BME280;60508;42.622;25.416;2023-02-07T11:13:12;98140.56;;;4.49;34.88
45078;BME280;60508;42.622;25.416;2023-02-07T11:15:58;98140.81;;;4.63;34.92
45078;BME280;60508;42.622;25.416;2023-02-07T11:18:51;98142.47;;;3.50;34.34
45078;BME280;60508;42.622;25.416;2023-02-07T11:24:07;98131.81;;;5.58;32.83
45078;BME280;60508;42.622;25.416;2023-02-07T11:26:48;98133.03;;;4.92;33.65
45078;BME280;60508;42.622;25.416;2023-02-07T11:29:19;98136.19;;;4.56;34.41
45078;BME280;60508;42.622;25.416;2023-02-07T11:31:47;98135.34;;;3.51;35.67
45078;BME280;60508;42.622;25.416;2023-02-07T11:39:50;98119.00;;;3.13;36.12
45078;BME280;60508;42.622;25.416;2023-02-07T11:42:24;98116.28;;;2.45;37.80
45078;BME280;60508;42.622;25.416;2023-02-07T11:44:51;98121.84;;;1.99;38.63
45078;BME280;60508;42.622;25.416;2023-02-07T11:47:24;98116.47;;;1.29;39.61
45078;BME280;60508;42.622;25.416;2023-02-07T11:49:57;98114.53;;;1.13;40.50
45078;BME280;60508;42.622;25.416;2023-02-07T11:52:24;98120.91;;;0.93;40.38
45078;BME280;60508;42.622;25.416;2023-02-07T11:54:53;98120.06;;;0.92;41.36
45078;BME280;60508;42.622;25.416;2023-02-07T11:57:21;98103.31;;;1.19;40.03
45078;BME280;60508;42.622;25.416;2023-02-07T12:00:06;98117.69;;;1.35;39.98
45078;BME280;60508;42.622;25.416;2023-02-07T12:02:49;98098.88;;;1.64;39.71
45078;BME280;60508;42.622;25.416;2023-02-07T12:05:20;98103.44;;;1.72;39.32
45078;BME280;60508;42.622;25.416;2023-02-07T12:07:51;98109.44;;;1.82;39.48
45078;BME280;60508;42.622;25.416;2023-02-07T12:10:21;98108.03;;;2.56;38.55
45078;BME280;60508;42.622;25.416;2023-02-07T12:21:27;98106.91;;;2.59;38.28
45078;BME280;60508;42.622;25.416;2023-02-07T12:26:29;98107.56;;;1.74;40.32
45078;BME280;60508;42.622;25.416;2023-02-07T12:31:44;98101.88;;;0.89;41.59
45078;BME280;60508;42.622;25.416;2023-02-07T12:34:18;98106.63;;;1.03;41.66
45078;BME280;60508;42.622;25.416;2023-02-07T12:36:53;98106.94;;;1.80;39.38
45078;BME280;60508;42.622;25.416;2023-02-07T12:39:35;98104.50;;;2.90;37.21
45078;BME280;60508;42.622;25.416;2023-02-07T12:42:29;98109.41;;;3.20;36.96
45078;BME280;60508;42.622;25.416;2023-02-07T12:44:59;98102.31;;;6.35;32.75
45078;BME280;60508;42.622;25.416;2023-02-07T13:01:23;98115.84;;;11.77;23.41
45078;BME280;60508;42.622;25.416;2023-02-07T13:09:15;98116.16;;;11.56;23.23
45078;BME280;60508;42.622;25.416;2023-02-07T13:24:54;98116.03;;;5.94;29.85
45078;BME280;60508;42.622;25.416;2023-02-07T13:27:21;98132.63;;;4.08;32.87
45078;BME280;60508;42.622;25.416;2023-02-07T13:29:50;98128.19;;;3.35;34.78
45078;BME280;60508;42.622;25.416;2023-02-07T13:32:25;98120.34;;;5.03;32.88
45078;BME280;60508;42.622;25.416;2023-02-07T13:37:18;98122.69;;;8.67;26.23
45078;BME280;60508;42.622;25.416;2023-02-07T13:40:16;98127.59;;;5.87;30.42
45078;BME280;60508;42.622;25.416;2023-02-07T13:49:15;98128.47;;;9.12;24.85
45078;BME280;60508;42.622;25.416;2023-02-07T13:52:31;98120.88;;;10.76;24.10
45078;BME280;60508;42.622;25.416;2023-02-07T14:00:21;98128.03;;;12.74;21.82
45078;BME280;60508;42.622;25.416;2023-02-07T14:03:01;98138.44;;;11.38;22.57
45078;BME280;60508;42.622;25.416;2023-02-07T14:05:34;98130.69;;;10.24;23.97
45078;BME280;60508;42.622;25.416;2023-02-07T14:08:06;98130.88;;;9.69;24.42
45078;BME280;60508;42.622;25.416;2023-02-07T14:10:48;98132.69;;;9.55;25.13
45078;BME280;60508;42.622;25.416;2023-02-07T14:18:43;98128.69;;;10.91;22.48
45078;BME280;60508;42.622;25.416;2023-02-07T14:29:37;98133.53;;;5.27;31.13
45078;BME280;60508;42.622;25.416;2023-02-07T14:37:42;98136.44;;;3.07;34.37
45078;BME280;60508;42.622;25.416;2023-02-07T14:42:54;98139.41;;;2.27;35.40
45078;BME280;60508;42.622;25.416;2023-02-07T14:45:22;98149.25;;;1.90;35.87
45078;BME280;60508;42.622;25.416;2023-02-07T14:47:49;98151.22;;;1.62;36.30
45078;BME280;60508;42.622;25.416;2023-02-07T14:50:20;98151.19;;;1.26;36.46
45078;BME280;60508;42.622;25.416;2023-02-07T14:52:48;98151.31;;;1.06;37.11
45078;BME280;60508;42.622;25.416;2023-02-07T14:55:17;98149.50;;;0.89;37.22
45078;BME280;60508;42.622;25.416;2023-02-07T14:58:25;98152.22;;;0.69;38.02
45078;BME280;60508;42.622;25.416;2023-02-07T15:00:55;98152.84;;;0.63;38.76
45078;BME280;60508;42.622;25.416;2023-02-07T15:03:28;98155.81;;;0.50;38.85
45078;BME280;60508;42.622;25.416;2023-02-07T15:05:59;98167.34;;;0.49;38.54
45078;BME280;60508;42.622;25.416;2023-02-07T15:08:29;98159.59;;;0.38;39.06
45078;BME280;60508;42.622;25.416;2023-02-07T15:11:00;98164.09;;;0.28;39.29
45078;BME280;60508;42.622;25.416;2023-02-07T15:16:11;98162.47;;;0.07;39.46
45078;BME280;60508;42.622;25.416;2023-02-07T15:18:43;98167.19;;;0.23;39.58
45078;BME280;60508;42.622;25.416;2023-02-07T15:21:26;98162.63;;;0.06;40.26
45078;BME280;60508;42.622;25.416;2023-02-07T15:26:32;98164.91;;;-0.19;41.05
45078;BME280;60508;42.622;25.416;2023-02-07T15:29:02;98166.56;;;-0.28;41.52
45078;BME280;60508;42.622;25.416;2023-02-07T15:31:29;98170.34;;;-0.40;42.34
45078;BME280;60508;42.622;25.416;2023-02-07T15:33:59;98176.31;;;-0.48;43.14
45078;BME280;60508;42.622;25.416;2023-02-07T15:36:38;98177.97;;;-0.57;43.13
45078;BME280;60508;42.622;25.416;2023-02-07T15:39:12;98178.53;;;-0.63;43.20
45078;BME280;60508;42.622;25.416;2023-02-07T15:41:39;98179.34;;;-0.72;44.17
45078;BME280;60508;42.622;25.416;2023-02-07T15:44:16;98176.69;;;-0.92;43.95
45078;BME280;60508;42.622;25.416;2023-02-07T15:46:48;98163.06;;;-0.97;43.18
45078;BME280;60508;42.622;25.416;2023-02-07T15:54:43;98172.59;;;-1.15;44.96
45078;BME280;60508;42.622;25.416;2023-02-07T15:57:17;98169.00;;;-1.14;44.99